Time;durP1;ratioP1;P1;durP2;ratioP2;P2;SDS_P1;SDS_P2;PMS_P1;PMS_P2;Temp;Humidity;BMP_temperature;BMP_pressure;BME280_temperature;BME280_humidity;BME280_pressure;Samples;Min_cycle;Max_cycle;Signal;HPM_P1;HPM_P2
2024/03/06 00:02:27;;;;;;;11.43;4.88;;;;;;;5.39;100.00;101637.50;6204118;28;20046;-75
2024/03/06 00:05:28;;;;;;;8.50;4.35;;;;;;;5.32;100.00;101636.75;6220212;28;20049;-76
2024/03/06 00:08:30;;;;;;;8.90;4.97;;;;;;;5.31;100.00;101648.09;6227896;28;20054;-75
2024/03/06 00:11:32;;;;;;;10.57;5.03;;;;;;;5.34;100.00;101652.38;6228486;28;20053;-75
2024/03/06 00:14:36;;;;;;;13.15;4.85;;;;;;;5.24;100.00;101648.19;6228037;28;20042;-76
2024/03/06 00:17:37;;;;;;;11.55;4.72;;;;;;;5.32;100.00;101660.22;6228239;28;20072;-75
2024/03/06 00:20:40;;;;;;;10.13;4.28;;;;;;;5.38;100.00;101664.47;6227724;28;20057;-76
2024/03/06 00:23:42;;;;;;;13.50;4.43;;;;;;;5.29;100.00;101665.47;6227828;28;20046;-76
2024/03/06 00:26:46;;;;;;;20.80;7.82;;;;;;;5.31;100.00;101671.53;6227905;28;20052;-76
2024/03/06 00:29:48;;;;;;;14.00;4.65;;;;;;;5.33;100.00;101667.16;6227380;28;20053;-76
2024/03/06 00:32:49;;;;;;;10.48;4.47;;;;;;;5.26;100.00;101667.25;6227959;28;20054;-75
2024/03/06 00:35:50;;;;;;;14.98;4.47;;;;;;;5.30;100.00;101680.22;6227419;28;21072;-75
2024/03/06 00:38:52;;;;;;;12.48;5.20;;;;;;;5.34;100.00;101674.06;6227387;28;20580;-76
2024/03/06 00:41:55;;;;;;;10.77;4.75;;;;;;;5.34;100.00;101678.44;6227530;28;20052;-76
2024/03/06 00:44:56;;;;;;;16.00;4.82;;;;;;;5.36;100.00;101676.66;6226635;28;20129;-76
2024/03/06 00:47:57;;;;;;;14.98;4.88;;;;;;;5.30;100.00;101684.56;6227588;28;20060;-76
2024/03/06 00:50:59;;;;;;;10.00;4.30;;;;;;;5.34;100.00;101683.63;6227042;28;20042;-76
2024/03/06 00:54:00;;;;;;;10.85;4.38;;;;;;;5.32;100.00;101678.47;6227217;28;20050;-75
2024/03/06 00:57:03;;;;;;;10.55;4.40;;;;;;;5.34;100.00;101687.09;6227241;28;20450;-76
2024/03/06 01:00:10;;;;;;;8.52;4.80;;;;;;;5.35;100.00;101685.34;6227098;28;20057;-76
2024/03/06 01:03:11;;;;;;;14.07;4.45;;;;;;;5.35;100.00;101683.59;6227074;28;20049;-75
2024/03/06 01:06:12;;;;;;;10.15;4.75;;;;;;;5.36;100.00;101689.69;6227003;28;20057;-76
2024/03/06 01:09:14;;;;;;;12.32;4.38;;;;;;;5.30;100.00;101685.44;6226446;28;20050;-75
2024/03/06 01:12:18;;;;;;;7.43;4.28;;;;;;;5.28;100.00;101695.03;6226827;28;20354;-76
2024/03/06 01:15:19;;;;;;;9.32;4.03;;;;;;;5.29;100.00;101691.53;6216723;28;20050;-76
2024/03/06 01:18:21;;;;;;;9.75;4.35;;;;;;;5.26;100.00;101693.31;6202570;28;20049;-76
2024/03/06 01:21:22;;;;;;;9.45;4.10;;;;;;;5.22;100.00;101696.84;6201882;28;20069;-75
2024/03/06 01:24:23;;;;;;;7.72;3.78;;;;;;;5.21;100.00;101703.81;6208868;28;20485;-75
2024/03/06 01:27:26;;;;;;;10.07;3.88;;;;;;;5.13;100.00;101699.59;6202241;28;20057;-75
2024/03/06 01:30:27;;;;;;;8.60;4.13;;;;;;;5.15;100.00;101708.28;6201939;28;20352;-76
2024/03/06 01:33:29;;;;;;;8.35;4.18;;;;;;;5.16;100.00;101710.84;6202291;28;20057;-75
2024/03/06 01:36:30;;;;;;;8.23;4.60;;;;;;;5.23;100.00;101704.66;6201869;28;20047;-75
2024/03/06 01:39:31;;;;;;;8.70;4.15;;;;;;;5.25;100.00;101710.69;6209183;28;20061;-75
2024/03/06 01:42:34;;;;;;;10.30;3.97;;;;;;;5.21;100.00;101714.25;6209816;28;20359;-75
2024/03/06 01:45:35;;;;;;;7.65;4.07;;;;;;;5.23;100.00;101709.03;6201924;28;20055;-76
2024/03/06 01:48:39;;;;;;;12.20;4.30;;;;;;;5.28;100.00;101715.03;6201459;28;20058;-76
2024/03/06 01:51:42;;;;;;;12.82;4.38;;;;;;;5.27;100.00;101719.38;6202044;28;20050;-76
2024/03/06 01:54:45;;;;;;;13.13;4.95;;;;;;;5.17;100.00;101723.00;6201597;28;20073;-77
2024/03/06 01:57:47;;;;;;;7.97;3.60;;;;;;;5.13;100.00;101713.50;6201956;28;20046;-76
2024/03/06 02:00:50;;;;;;;12.75;4.75;;;;;;;5.05;100.00;101726.66;6201350;28;20046;-77
2024/03/06 02:03:52;;;;;;;9.77;4.72;;;;;;;5.08;100.00;101728.34;6201817;28;20047;-76
2024/03/06 02:06:53;;;;;;;10.15;4.72;;;;;;;4.98;100.00;101730.22;6201470;28;20065;-76
2024/03/06 02:09:54;;;;;;;15.57;5.28;;;;;;;4.98;100.00;101731.97;6209529;28;20054;-76
2024/03/06 02:12:57;;;;;;;7.60;4.47;;;;;;;5.05;100.00;101726.66;6201629;28;20054;-76
2024/03/06 02:15:59;;;;;;;10.98;4.47;;;;;;;5.07;100.00;101721.41;6205086;28;20078;-76
2024/03/06 02:19:00;;;;;;;11.30;4.78;;;;;;;5.11;100.00;101724.84;6201142;28;20105;-76
2024/03/06 02:22:03;;;;;;;9.95;4.40;;;;;;;5.03;100.00;101724.94;6201055;28;20061;-77
2024/03/06 02:25:05;;;;;;;10.35;5.00;;;;;;;4.95;100.00;101732.88;6201212;28;20056;-77
2024/03/06 02:28:06;;;;;;;8.93;5.05;;;;;;;4.90;100.00;101726.00;6201189;28;20359;-77
2024/03/06 02:31:08;;;;;;;10.02;4.90;;;;;;;4.92;100.00;101725.09;6201039;28;20061;-76
2024/03/06 02:34:09;;;;;;;15.43;4.90;;;;;;;4.87;100.00;101723.47;6201105;28;20046;-76
2024/03/06 02:37:12;;;;;;;13.63;5.40;;;;;;;4.88;100.00;101723.44;6201255;28;20351;-76
2024/03/06 02:40:13;;;;;;;13.45;5.80;;;;;;;4.83;100.00;101718.28;6200759;28;20057;-76
2024/03/06 02:43:15;;;;;;;13.20;5.03;;;;;;;4.81;100.00;101721.78;6201213;28;20070;-76
2024/03/06 02:46:17;;;;;;;10.52;5.18;;;;;;;4.61;100.00;101716.00;6201110;28;20438;-76
2024/03/06 02:49:19;;;;;;;10.57;5.15;;;;;;;4.66;100.00;101725.47;6200658;28;20047;-76
2024/03/06 02:52:22;;;;;;;15.80;5.75;;;;;;;4.75;100.00;101727.09;6215716;28;20053;-76
2024/03/06 02:55:24;;;;;;;9.15;5.00;;;;;;;4.75;100.00;101727.94;6225102;28;20439;-76
2024/03/06 02:58:25;;;;;;;14.20;5.68;;;;;;;4.83;100.00;101722.63;6224978;28;20180;-76
2024/03/06 03:01:28;;;;;;;11.35;4.88;;;;;;;4.72;100.00;101734.91;6225237;28;20139;-76
2024/03/06 03:04:29;;;;;;;15.98;6.35;;;;;;;4.79;100.00;101726.16;6225082;28;20054;-77
2024/03/06 03:07:32;;;;;;;19.23;5.78;;;;;;;4.78;100.00;101730.50;6225198;28;20442;-76
2024/03/06 03:10:34;;;;;;;12.63;5.43;;;;;;;4.73;100.00;101727.13;6229563;28;20050;-76
2024/03/06 03:13:35;;;;;;;13.30;6.05;;;;;;;4.70;100.00;101728.88;6229741;28;20053;-77
2024/03/06 03:16:37;;;;;;;12.55;5.80;;;;;;;4.64;100.00;101737.66;6229784;28;20050;-76
2024/03/06 03:19:39;;;;;;;13.05;6.10;;;;;;;4.69;100.00;101735.84;6229231;28;20049;-76
2024/03/06 03:22:43;;;;;;;11.63;5.35;;;;;;;4.73;100.00;101734.91;6229290;28;20288;-76
2024/03/06 03:25:44;;;;;;;13.63;5.30;;;;;;;4.72;100.00;101732.31;6225809;28;20200;-76
2024/03/06 03:28:46;;;;;;;20.02;5.97;;;;;;;4.82;100.00;101736.53;6229073;28;20049;-76
2024/03/06 03:31:47;;;;;;;13.30;6.53;;;;;;;4.90;100.00;101737.28;6229475;28;20045;-76
2024/03/06 03:34:49;;;;;;;13.73;6.85;;;;;;;4.94;100.00;101744.16;6228939;28;20438;-76
2024/03/06 03:37:52;;;;;;;15.82;6.05;;;;;;;4.88;100.00;101751.22;6229303;28;20137;-77
2024/03/06 03:40:53;;;;;;;11.93;5.72;;;;;;;4.88;100.00;101749.47;6227440;28;20495;-76
2024/03/06 03:43:54;;;;;;;17.52;7.00;;;;;;;4.88;100.00;101754.69;6229096;28;20050;-77
2024/03/06 03:46:56;;;;;;;13.65;6.15;;;;;;;4.88;100.00;101759.88;6228621;28;20115;-77
2024/03/06 03:49:57;;;;;;;17.13;6.60;;;;;;;4.83;100.00;101756.50;6227776;28;20069;-76
2024/03/06 03:53:00;;;;;;;14.90;6.28;;;;;;;4.88;100.00;101761.63;6215850;28;20046;-76
2024/03/06 03:56:03;;;;;;;16.25;7.28;;;;;;;4.84;100.00;101766.88;6222830;28;20042;-76
2024/03/06 03:59:04;;;;;;;13.40;5.78;;;;;;;4.91;100.00;101767.66;6228254;28;20045;-76
2024/03/06 04:02:05;;;;;;;18.88;6.70;;;;;;;4.90;100.00;101781.56;6216591;28;20050;-76
2024/03/06 04:05:09;;;;;;;14.25;7.20;;;;;;;4.88;100.00;101775.50;6203826;28;20047;-76
2024/03/06 04:08:11;;;;;;;11.88;5.68;;;;;;;4.91;100.00;101777.22;6204581;28;20180;-75
2024/03/06 04:11:13;;;;;;;14.55;6.03;;;;;;;5.02;100.00;101775.31;6203799;28;20042;-75
2024/03/06 04:14:14;;;;;;;14.73;6.95;;;;;;;4.83;100.00;101769.50;6207084;28;20046;-76
2024/03/06 04:17:16;;;;;;;17.60;6.60;;;;;;;4.95;100.00;101773.69;6206600;28;20054;-76
2024/03/06 04:20:17;;;;;;;11.43;5.85;;;;;;;5.00;100.00;101777.97;6202332;28;20077;-75
2024/03/06 04:23:20;;;;;;;20.02;6.70;;;;;;;4.98;100.00;101779.72;6203966;28;20054;-76
2024/03/06 04:26:21;;;;;;;15.70;6.07;;;;;;;4.95;100.00;101773.69;6203441;28;20346;-75
2024/03/06 04:29:22;;;;;;;19.00;6.75;;;;;;;4.95;100.00;101782.38;6203534;28;20050;-76
2024/03/06 04:32:24;;;;;;;15.15;6.35;;;;;;;5.00;100.00;101791.00;6203558;28;20362;-76
2024/03/06 04:35:25;;;;;;;15.90;6.65;;;;;;;5.01;100.00;101784.03;6203459;28;20342;-75
2024/03/06 04:38:29;;;;;;;16.15;6.65;;;;;;;4.88;100.00;101782.47;6203129;28;20046;-75
2024/03/06 04:41:30;;;;;;;15.55;6.68;;;;;;;4.80;100.00;101788.63;6203657;28;20042;-76
2024/03/06 04:44:35;;;;;;;15.07;7.22;;;;;;;4.80;100.00;101791.22;6203270;28;20053;-77
2024/03/06 04:47:36;;;;;;;20.55;6.90;;;;;;;4.87;100.00;101797.25;6219798;28;20042;-75
2024/03/06 04:50:37;;;;;;;15.15;6.72;;;;;;;4.96;100.00;101806.69;6219123;28;20046;-76
2024/03/06 04:53:42;;;;;;;16.27;7.45;;;;;;;4.89;100.00;101800.66;6227351;28;20050;-75
2024/03/06 04:56:43;;;;;;;19.70;7.90;;;;;;;4.92;100.00;101800.66;6227276;28;20042;-75
2024/03/06 04:59:44;;;;;;;16.08;7.40;;;;;;;4.91;100.00;101805.88;6217655;28;20046;-76
2024/03/06 05:02:46;;;;;;;16.05;6.85;;;;;;;4.87;100.00;101802.44;6203153;28;20080;-76
2024/03/06 05:05:47;;;;;;;13.10;7.22;;;;;;;4.87;100.00;101807.66;6202710;28;20049;-76
2024/03/06 05:08:50;;;;;;;12.38;6.50;;;;;;;4.82;100.00;101819.88;6202726;28;20042;-75
2024/03/06 05:11:51;;;;;;;18.63;7.43;;;;;;;4.82;100.00;101817.28;6204590;28;20045;-75
2024/03/06 05:14:53;;;;;;;15.77;6.57;;;;;;;4.84;100.00;101811.16;6208619;28;20038;-75
2024/03/06 05:17:55;;;;;;;19.52;8.02;;;;;;;4.94;100.00;101817.09;6221250;28;20046;-76
2024/03/06 05:20:57;;;;;;;15.32;7.07;;;;;;;4.84;100.00;101825.91;6226663;28;20054;-76
2024/03/06 05:23:59;;;;;;;17.05;8.13;;;;;;;4.79;100.00;101828.56;6226819;28;20052;-76
2024/03/06 05:27:01;;;;;;;17.25;7.57;;;;;;;4.79;100.00;101822.50;6226393;28;20049;-76
2024/03/06 05:30:04;;;;;;;21.35;7.63;;;;;;;4.86;100.00;101826.78;6214738;28;20042;-76
2024/03/06 05:33:05;;;;;;;24.45;7.50;;;;;;;4.93;100.00;101828.41;6201612;28;20042;-76
2024/03/06 05:36:07;;;;;;;15.43;7.35;;;;;;;4.88;100.00;101832.81;6202123;28;20069;-76
2024/03/06 05:39:12;;;;;;;15.65;7.07;;;;;;;4.85;100.00;101838.03;6201817;28;20050;-75
2024/03/06 05:42:13;;;;;;;16.92;7.03;;;;;;;4.99;100.00;101845.69;6202157;28;20050;-76
2024/03/06 05:45:15;;;;;;;16.65;7.20;;;;;;;5.03;100.00;101842.16;6208751;28;20053;-75
2024/03/06 05:48:16;;;;;;;20.88;8.02;;;;;;;4.97;100.00;101850.06;6205068;28;20046;-76
2024/03/06 05:51:18;;;;;;;18.58;8.40;;;;;;;4.95;100.00;101855.31;6204065;28;20057;-75
2024/03/06 05:54:20;;;;;;;15.82;7.65;;;;;;;4.95;100.00;101842.28;6201652;28;20328;-76
2024/03/06 05:57:22;;;;;;;15.43;7.07;;;;;;;5.01;100.00;101852.63;6201822;28;20050;-76
2024/03/06 06:00:23;;;;;;;14.70;6.82;;;;;;;5.06;100.00;101857.78;6201027;28;20057;-76
2024/03/06 06:03:24;;;;;;;16.48;7.30;;;;;;;4.91;100.00;101858.84;6201854;28;20050;-76
2024/03/06 06:06:26;;;;;;;17.83;7.97;;;;;;;4.96;100.00;101862.25;6201344;28;20049;-76
2024/03/06 06:09:28;;;;;;;18.27;6.88;;;;;;;5.02;100.00;101866.50;6201128;28;20200;-76
2024/03/06 06:12:30;;;;;;;19.05;8.25;;;;;;;4.97;100.00;101874.38;6201521;28;20042;-76
2024/03/06 06:15:31;;;;;;;19.55;8.38;;;;;;;5.00;100.00;101876.94;6201517;28;20045;-76
2024/03/06 06:18:33;;;;;;;23.75;8.93;;;;;;;4.92;100.00;101878.78;6224721;28;20038;-76
2024/03/06 06:21:35;;;;;;;23.70;7.85;;;;;;;4.91;100.00;101879.66;6225803;28;20505;-76
2024/03/06 06:24:38;;;;;;;25.98;10.80;;;;;;;4.96;100.00;101887.44;6222371;28;20527;-76
2024/03/06 06:27:39;;;;;;;31.13;11.82;;;;;;;5.03;100.00;101891.66;6212072;28;20046;-76
2024/03/06 06:30:41;;;;;;;31.27;12.27;;;;;;;5.11;100.00;101892.44;6213581;28;20050;-76
2024/03/06 06:33:45;;;;;;;25.55;11.25;;;;;;;5.10;100.00;101893.34;6212037;28;20382;-76
2024/03/06 06:36:46;;;;;;;25.92;9.75;;;;;;;5.07;100.00;101899.44;6212931;28;20394;-76
2024/03/06 06:39:49;;;;;;;28.15;9.98;;;;;;;5.06;100.00;101902.91;6212294;28;20049;-76
2024/03/06 06:42:51;;;;;;;28.73;8.80;;;;;;;4.97;100.00;101909.97;6217081;28;20078;-76
2024/03/06 06:45:52;;;;;;;24.67;10.32;;;;;;;5.06;100.00;101918.56;6205720;28;20042;-76
2024/03/06 06:48:53;;;;;;;22.73;8.60;;;;;;;5.03;100.00;101917.72;6205900;28;20045;-77
2024/03/06 06:51:55;;;;;;;25.48;10.40;;;;;;;5.08;100.00;101914.16;6205908;28;20510;-76
2024/03/06 06:54:57;;;;;;;18.20;8.32;;;;;;;5.06;100.00;101926.38;6205955;28;20046;-77
2024/03/06 06:57:59;;;;;;;18.55;8.30;;;;;;;5.02;100.00;101936.84;6205649;28;20362;-76
2024/03/06 07:01:00;;;;;;;25.58;10.25;;;;;;;5.12;100.00;101932.38;6205681;28;20047;-77
2024/03/06 07:04:02;;;;;;;14.93;7.03;;;;;;;5.05;100.00;101931.59;6205796;28;20125;-77
2024/03/06 07:07:03;;;;;;;24.15;8.55;;;;;;;4.91;100.00;101941.31;6220952;28;20061;-76
2024/03/06 07:10:07;;;;;;;19.73;8.50;;;;;;;5.03;100.00;101946.38;6222990;28;20046;-76
2024/03/06 07:13:08;;;;;;;24.48;10.15;;;;;;;5.11;100.00;101948.91;6219082;28;20054;-76
2024/03/06 07:16:09;;;;;;;24.38;8.98;;;;;;;5.07;100.00;101959.34;6207913;28;20069;-77
2024/03/06 07:19:11;;;;;;;22.55;8.45;;;;;;;5.06;100.00;101959.38;6204997;28;20121;-76
2024/03/06 07:22:13;;;;;;;23.17;9.00;;;;;;;5.09;100.00;101960.22;6207541;28;20450;-76
2024/03/06 07:25:16;;;;;;;20.13;9.15;;;;;;;5.19;100.00;101962.72;6210055;28;20050;-75
2024/03/06 07:28:17;;;;;;;18.52;7.93;;;;;;;5.10;100.00;101961.06;6219448;28;20061;-76
2024/03/06 07:31:19;;;;;;;22.40;7.97;;;;;;;5.22;100.00;101970.47;6229035;28;20048;-76
2024/03/06 07:34:21;;;;;;;24.60;9.20;;;;;;;5.24;100.00;101976.56;6229261;28;20129;-76
2024/03/06 07:37:22;;;;;;;18.42;8.05;;;;;;;5.24;100.00;101981.75;6229530;28;20255;-76
2024/03/06 07:40:25;;;;;;;22.27;7.78;;;;;;;5.30;100.00;101984.28;6228729;28;20430;-76
2024/03/06 07:43:26;;;;;;;26.35;9.23;;;;;;;5.36;100.00;101992.06;6229188;28;20042;-75
2024/03/06 07:46:27;;;;;;;19.45;8.32;;;;;;;5.32;100.00;101987.75;6228783;28;20046;-75
2024/03/06 07:49:29;;;;;;;18.25;7.57;;;;;;;5.23;100.00;101987.88;6228565;28;20065;-76
2024/03/06 07:52:31;;;;;;;16.95;8.13;;;;;;;5.30;100.00;101994.72;6205780;28;20057;-76
2024/03/06 07:55:34;;;;;;;21.88;8.85;;;;;;;5.37;100.00;102003.34;6204068;28;20050;-76
2024/03/06 07:58:35;;;;;;;20.30;8.30;;;;;;;5.37;100.00;102012.03;6204049;28;20046;-76
2024/03/06 08:01:38;;;;;;;18.13;8.18;;;;;;;5.29;100.00;102012.09;6204494;28;20361;-75
2024/03/06 08:04:39;;;;;;;22.38;8.85;;;;;;;5.33;100.00;102015.53;6204207;28;20055;-75
2024/03/06 08:07:41;;;;;;;16.80;7.82;;;;;;;5.34;100.00;102015.50;6219667;28;20046;-76
2024/03/06 08:10:44;;;;;;;25.50;8.85;;;;;;;5.32;100.00;102009.47;6223511;28;20438;-76
2024/03/06 08:13:46;;;;;;;17.98;8.55;;;;;;;5.36;100.00;102018.13;6215477;28;20054;-75
2024/03/06 08:16:47;;;;;;;24.33;8.63;;;;;;;5.40;100.00;102018.94;6226675;28;20390;-76
2024/03/06 08:19:48;;;;;;;23.58;9.05;;;;;;;5.48;100.00;102023.16;6219460;28;20046;-76
2024/03/06 08:22:50;;;;;;;23.33;8.52;;;;;;;5.53;100.00;102030.94;6227334;28;20358;-74
2024/03/06 08:25:53;;;;;;;21.05;8.80;;;;;;;5.47;100.00;102038.84;6226697;28;20569;-75
2024/03/06 08:28:54;;;;;;;21.92;9.27;;;;;;;5.63;100.00;102039.50;6203470;28;20125;-76
2024/03/06 08:31:57;;;;;;;18.48;8.50;;;;;;;5.64;100.00;102044.72;6203659;28;20050;-75
2024/03/06 08:34:59;;;;;;;20.90;9.15;;;;;;;5.73;100.00;102047.22;6203686;28;20050;-74
2024/03/06 08:38:00;;;;;;;18.83;8.10;;;;;;;5.81;100.00;102053.22;6203544;28;20065;-75
2024/03/06 08:41:05;;;;;;;19.05;9.15;;;;;;;5.73;100.00;102046.38;6215686;28;20053;-75
2024/03/06 08:44:07;;;;;;;24.83;9.13;;;;;;;5.83;100.00;102058.41;6212356;28;20050;-75
2024/03/06 08:47:08;;;;;;;17.05;7.43;;;;;;;6.02;100.00;102061.66;6222970;28;20046;-76
2024/03/06 08:50:10;;;;;;;20.42;8.50;;;;;;;6.13;100.00;102066.72;6227065;28;20049;-76
2024/03/06 08:53:13;;;;;;;18.38;8.23;;;;;;;6.17;100.00;102061.44;6227371;28;20569;-76
2024/03/06 08:56:16;;;;;;;18.77;8.88;;;;;;;6.10;100.00;102068.50;6227420;28;20045;-75
2024/03/06 08:59:17;;;;;;;20.20;8.32;;;;;;;5.99;100.00;102069.53;6226934;28;20046;-76
2024/03/06 09:02:20;;;;;;;20.60;9.25;;;;;;;6.09;100.00;102077.22;6227529;28;20053;-76
2024/03/06 09:05:21;;;;;;;27.00;8.95;;;;;;;6.01;100.00;102086.03;6214891;28;20533;-75
2024/03/06 09:08:23;;;;;;;20.45;9.48;;;;;;;6.07;100.00;102084.19;6213184;28;20065;-75
2024/03/06 09:11:25;;;;;;;23.50;8.55;;;;;;;6.05;100.00;102088.59;6210046;28;20161;-74
2024/03/06 09:14:27;;;;;;;24.48;9.65;;;;;;;6.04;100.00;102086.88;6217147;28;20120;-74
2024/03/06 09:17:29;;;;;;;22.85;9.50;;;;;;;6.28;100.00;102087.41;6217266;28;20465;-73
2024/03/06 09:20:31;;;;;;;23.55;9.25;;;;;;;6.39;100.00;102092.47;6213055;28;20458;-75
2024/03/06 09:23:33;;;;;;;20.10;8.38;;;;;;;6.08;100.00;102098.09;6210238;28;20054;-75
2024/03/06 09:26:37;;;;;;;23.70;10.32;;;;;;;6.40;100.00;102104.63;6201985;28;20136;-76
2024/03/06 09:29:38;;;;;;;21.83;9.93;;;;;;;6.43;100.00;102102.84;6202100;28;20046;-75
2024/03/06 09:32:39;;;;;;;20.77;8.93;;;;;;;6.53;100.00;102104.44;6202279;28;20049;-75
2024/03/06 09:35:44;;;;;;;22.38;9.68;;;;;;;6.73;100.00;102112.00;6204239;28;20042;-76
2024/03/06 09:38:46;;;;;;;20.15;8.68;;;;;;;6.67;100.00;102113.81;6223818;28;20645;-75
2024/03/06 09:41:50;;;;;;;21.95;9.23;;;;;;;6.48;100.00;102113.22;6226208;28;20359;-74
2024/03/06 09:44:51;;;;;;;22.38;9.63;;;;;;;6.62;100.00;102121.72;6226230;28;20045;-74
2024/03/06 09:47:53;;;;;;;19.88;9.30;;;;;;;6.59;100.00;102119.19;6226597;28;20046;-74
2024/03/06 09:50:58;;;;;;;19.85;9.60;;;;;;;6.69;100.00;102130.34;6220313;28;20089;-76
2024/03/06 09:54:00;;;;;;;19.88;9.02;;;;;;;6.77;100.00;102121.50;6226461;28;20351;-77
2024/03/06 09:57:03;;;;;;;25.23;11.20;;;;;;;6.86;100.00;102133.56;6225903;28;20053;-75
2024/03/06 10:00:08;;;;;;;28.60;11.77;;;;;;;6.89;100.00;102128.28;6226061;28;20068;-75
2024/03/06 10:03:11;;;;;;;25.33;9.90;;;;;;;6.92;100.00;102136.09;6226088;28;20081;-75
2024/03/06 10:06:12;;;;;;;23.27;10.25;;;;;;;6.90;100.00;102140.44;6225645;28;20042;-76
2024/03/06 10:09:17;;;;;;;24.77;10.57;;;;;;;7.05;100.00;102139.38;6225608;28;20454;-75
2024/03/06 10:12:22;;;;;;;24.17;9.63;;;;;;;7.10;100.00;102141.00;6225826;28;20038;-75
2024/03/06 10:15:25;;;;;;;23.48;9.40;;;;;;;7.25;100.00;102152.97;6225824;28;20045;-75
2024/03/06 10:18:28;;;;;;;24.27;10.07;;;;;;;7.29;100.00;102154.63;6213123;28;20045;-74
2024/03/06 10:21:33;;;;;;;23.80;10.45;;;;;;;7.31;100.00;102155.50;6201514;28;20042;-74
2024/03/06 10:24:34;;;;;;;20.73;9.20;;;;;;;7.24;100.00;102151.25;6201079;28;20461;-74
2024/03/06 10:27:37;;;;;;;31.35;10.45;;;;;;;7.29;100.00;102157.25;6201392;28;20042;-75
2024/03/06 10:30:41;;;;;;;29.52;10.00;;;;;;;7.24;100.00;102153.00;6200925;28;20061;-75
2024/03/06 10:33:43;;;;;;;26.67;10.82;;;;;;;7.26;100.00;102153.81;6217767;28;20457;-75
2024/03/06 10:36:45;;;;;;;22.98;10.70;;;;;;;7.49;100.00;102150.78;6225179;28;20438;-75
2024/03/06 10:39:49;;;;;;;23.70;11.48;;;;;;;7.38;100.00;102148.38;6225344;28;20108;-75
2024/03/06 10:42:53;;;;;;;29.67;10.95;;;;;;;7.38;100.00;102161.47;6225404;28;20339;-73
2024/03/06 10:46:04;;;;;;;26.67;9.93;;;;;;;7.55;100.00;102155.94;6225563;28;20121;-74
2024/03/06 10:49:05;;;;;;;26.42;9.95;;;;;;;7.56;100.00;102161.13;6225078;28;20068;-75
2024/03/06 10:52:07;;;;;;;22.65;10.55;;;;;;;7.36;100.00;102164.13;6225638;28;20045;-75
2024/03/06 10:55:10;;;;;;;23.08;10.75;;;;;;;7.45;100.00;102164.81;6213557;28;20051;-76
2024/03/06 10:58:13;;;;;;;22.45;10.57;;;;;;;7.45;100.00;102170.94;6213645;28;20439;-74
2024/03/06 11:01:17;;;;;;;28.88;11.77;;;;;;;7.49;100.00;102161.25;6208234;28;20049;-77
2024/03/06 11:04:18;;;;;;;28.33;11.57;;;;;;;7.51;100.00;102172.56;6224915;28;20052;-75
2024/03/06 11:07:20;;;;;;;25.40;11.00;;;;;;;7.46;100.00;102177.03;6225203;28;20041;-74
2024/03/06 11:10:32;;;;;;;26.48;10.73;;;;;;;7.68;100.00;102170.53;6224318;28;20431;-76
2024/03/06 11:13:36;;;;;;;24.40;10.43;;;;;;;7.61;100.00;102167.13;6225109;28;20061;-76
2024/03/06 11:16:58;;;;;;;23.13;10.70;;;;;;;7.72;100.00;102166.97;6224753;28;20053;-73
2024/03/06 11:20:14;;;;;;;23.08;10.10;;;;;;;7.73;100.00;102162.59;6203389;28;20050;-75
2024/03/06 11:23:16;;;;;;;29.83;10.05;;;;;;;7.87;100.00;102168.41;6200195;28;20050;-74
2024/03/06 11:26:17;;;;;;;23.00;10.70;;;;;;;7.91;100.00;102174.47;6200442;28;20046;-74
2024/03/06 11:29:21;;;;;;;25.35;10.43;;;;;;;8.06;100.00;102177.63;6201200;28;20439;-73
2024/03/06 11:32:23;;;;;;;21.40;9.77;;;;;;;8.16;100.00;102180.06;6215387;28;20057;-76
2024/03/06 11:35:24;;;;;;;26.70;10.90;;;;;;;8.08;100.00;102190.69;6226065;28;20050;-75
2024/03/06 11:38:26;;;;;;;24.02;10.77;;;;;;;8.16;100.00;102177.44;6228860;28;20064;-75
2024/03/06 11:41:30;;;;;;;21.08;10.07;;;;;;;8.14;100.00;102178.34;6228983;28;20042;-75
2024/03/06 11:44:33;;;;;;;24.02;10.15;;;;;;;8.14;100.00;102177.50;6228865;28;20042;-75
2024/03/06 11:47:58;;;;;;;21.77;10.20;;;;;;;8.33;100.00;102181.44;6228873;28;20434;-73
2024/03/06 11:51:02;;;;;;;24.70;9.00;;;;;;;8.29;100.00;102182.41;6228537;28;20108;-73
2024/03/06 11:54:06;;;;;;;26.33;11.27;;;;;;;8.19;100.00;102180.88;6225828;28;20058;-74
2024/03/06 11:57:07;;;;;;;23.50;10.70;;;;;;;8.19;100.00;102180.88;6205709;28;20076;-74
2024/03/06 12:00:12;;;;;;;22.48;11.00;;;;;;;8.37;100.00;102179.66;6214093;28;20089;-73
2024/03/06 12:03:13;;;;;;;24.60;10.50;;;;;;;8.52;100.00;102179.31;6215733;28;20045;-73
2024/03/06 12:06:16;;;;;;;26.65;11.45;;;;;;;8.63;100.00;102181.72;6216952;28;20046;-74
2024/03/06 12:09:18;;;;;;;26.30;10.23;;;;;;;8.64;100.00;102184.31;6216365;28;20090;-74
2024/03/06 12:12:19;;;;;;;27.42;10.35;;;;;;;8.60;100.00;102177.41;6219174;28;20042;-73
2024/03/06 12:15:24;;;;;;;24.40;10.00;;;;;;;8.66;100.00;102184.25;6214235;28;20054;-74
2024/03/06 12:18:25;;;;;;;29.98;12.30;;;;;;;8.90;100.00;102182.81;6217341;28;20045;-75
2024/03/06 12:21:29;;;;;;;23.63;9.82;;;;;;;8.97;100.00;102181.81;6214845;28;20046;-75
2024/03/06 12:24:31;;;;;;;21.15;10.55;;;;;;;9.14;100.00;102184.88;6214235;28;20054;-75
2024/03/06 12:27:33;;;;;;;23.23;10.80;;;;;;;9.20;100.00;102186.50;6211587;28;20046;-73
2024/03/06 12:30:42;;;;;;;22.70;10.45;;;;;;;9.12;100.00;102183.19;6203552;28;20046;-75
2024/03/06 12:33:43;;;;;;;25.73;10.83;;;;;;;9.10;100.00;102188.47;6207232;28;20461;-76
2024/03/06 12:36:45;;;;;;;35.05;12.52;;;;;;;9.05;100.00;102187.72;6217144;28;20053;-75
2024/03/06 12:39:47;;;;;;;27.35;11.35;;;;;;;9.07;100.00;102185.91;6215282;28;20359;-75
2024/03/06 12:42:49;;;;;;;28.98;11.32;;;;;;;9.03;100.00;102188.66;6210543;28;20332;-75
2024/03/06 12:45:54;;;;;;;23.88;9.75;;;;;;;9.23;100.00;102189.06;6215557;28;20049;-75
2024/03/06 12:48:55;;;;;;;23.00;10.45;;;;;;;9.19;100.00;102186.53;6227080;28;20057;-75
2024/03/06 12:51:57;;;;;;;27.80;11.52;;;;;;;9.23;100.00;102189.06;6227541;28;20050;-77
2024/03/06 12:54:58;;;;;;;26.33;10.60;;;;;;;9.26;100.00;102178.47;6227262;28;20165;-75
2024/03/06 12:57:59;;;;;;;33.92;10.55;;;;;;;9.35;100.00;102182.63;6226601;28;20347;-76
2024/03/06 13:01:02;;;;;;;28.50;10.73;;;;;;;9.33;100.00;102176.56;6218070;28;20046;-77
2024/03/06 13:04:05;;;;;;;23.05;10.82;;;;;;;9.41;100.00;102182.47;6227296;28;20060;-75
2024/03/06 13:07:07;;;;;;;22.50;9.95;;;;;;;9.46;100.00;102188.47;6218885;28;20045;-77
2024/03/06 13:10:10;;;;;;;23.30;10.70;;;;;;;9.40;100.00;102181.63;6226821;28;20431;-75
2024/03/06 13:13:11;;;;;;;23.05;9.68;;;;;;;9.68;100.00;102183.53;6226783;28;20061;-76
2024/03/06 13:16:14;;;;;;;23.40;9.43;;;;;;;9.58;100.00;102169.78;6226785;28;20431;-77
2024/03/06 13:19:15;;;;;;;23.45;10.82;;;;;;;9.51;100.00;102175.25;6219917;28;20465;-78
2024/03/06 13:22:17;;;;;;;28.42;11.18;;;;;;;9.52;100.00;102176.94;6227073;28;20050;-78
2024/03/06 13:25:19;;;;;;;24.95;10.15;;;;;;;9.52;100.00;102190.94;6226642;28;20058;-77
2024/03/06 13:28:21;;;;;;;24.50;10.05;;;;;;;9.50;100.00;102181.41;6226892;28;20073;-77
2024/03/06 13:31:24;;;;;;;20.65;10.73;;;;;;;9.47;100.00;102184.09;6220442;28;20073;-76
2024/03/06 13:34:25;;;;;;;25.23;10.55;;;;;;;9.40;100.00;102185.97;6202017;28;20046;-77
2024/03/06 13:37:27;;;;;;;26.42;11.18;;;;;;;9.57;100.00;102181.16;6202784;28;20043;-78
2024/03/06 13:40:28;;;;;;;22.75;11.68;;;;;;;9.63;100.00;102185.44;6201447;28;20046;-78
2024/03/06 13:43:31;;;;;;;25.92;11.68;;;;;;;9.67;100.00;102187.03;6202307;28;20049;-78
2024/03/06 13:46:34;;;;;;;24.10;10.80;;;;;;;9.80;100.00;102182.31;6220060;28;20127;-77
2024/03/06 13:49:37;;;;;;;22.83;11.25;;;;;;;9.71;100.00;102185.19;6226202;28;20045;-76
2024/03/06 13:52:39;;;;;;;26.40;11.18;;;;;;;9.71;100.00;102185.19;6226235;28;20054;-75
2024/03/06 13:55:41;;;;;;;32.72;12.18;;;;;;;9.58;100.00;102182.91;6226421;28;20053;-75